createdAt,value
2018-09-02T00:01:01.704Z,41.63
2018-09-02T00:03:43.855Z,38.77
2018-09-02T00:06:25.239Z,38.47
2018-09-02T00:09:06.532Z,36.33
2018-09-02T00:11:47.252Z,37.90
2018-09-02T00:14:27.817Z,37.63
2018-09-02T00:17:10.172Z,36.60
2018-09-02T00:19:50.630Z,37.80
2018-09-02T00:22:31.849Z,39.00
2018-09-02T00:25:13.917Z,39.73
2018-09-02T00:27:54.540Z,37.03
2018-09-02T00:30:35.237Z,38.10
2018-09-02T00:33:15.765Z,37.97
2018-09-02T00:35:56.287Z,37.40
2018-09-02T00:38:37.003Z,37.97
2018-09-02T00:41:17.555Z,37.70
2018-09-02T00:43:57.965Z,38.47
2018-09-02T00:46:38.244Z,37.07
2018-09-02T00:49:18.832Z,37.00
2018-09-02T00:51:59.276Z,35.07
2018-09-02T00:54:40.689Z,34.23
2018-09-02T00:57:21.120Z,34.90
2018-09-02T01:00:01.621Z,35.67
2018-09-02T01:02:43.869Z,33.90
2018-09-02T01:05:24.399Z,33.53
2018-09-02T01:08:05.207Z,32.70
2018-09-02T01:10:45.836Z,31.87
2018-09-02T01:13:26.332Z,34.30
2018-09-02T01:16:06.877Z,32.43
2018-09-02T01:18:47.377Z,33.20
2018-09-02T01:21:28.066Z,33.40
2018-09-02T01:24:09.769Z,32.13
2018-09-02T01:26:50.308Z,34.10
2018-09-02T01:29:30.857Z,33.20
2018-09-02T01:32:14.508Z,32.57
2018-09-02T01:34:54.919Z,32.83
2018-09-02T01:37:35.232Z,32.13
2018-09-02T01:40:15.741Z,31.47
2018-09-02T01:42:56.356Z,32.90
2018-09-02T01:45:36.825Z,31.57
2018-09-02T01:48:17.360Z,35.53
2018-09-02T01:50:57.775Z,34.07
2018-09-02T01:53:38.238Z,32.90
2018-09-02T01:56:18.776Z,33.07
2018-09-02T01:58:59.657Z,32.37
2018-09-02T02:01:42.852Z,33.83
2018-09-02T02:04:23.961Z,34.47
2018-09-02T02:07:04.650Z,33.20
2018-09-02T02:09:45.761Z,34.70
2018-09-02T02:12:26.728Z,35.20
2018-09-02T02:15:07.424Z,34.27
2018-09-02T02:43:50.190Z,33.90
2018-09-02T02:46:30.721Z,32.27
2018-09-02T02:49:11.349Z,32.93
2018-09-02T02:51:52.024Z,33.07
2018-09-02T02:54:32.593Z,31.90
2018-09-02T02:57:13.184Z,29.30
2018-09-02T02:59:53.638Z,29.93
2018-09-02T03:02:35.048Z,28.57
2018-09-02T03:05:15.632Z,26.50
2018-09-02T03:07:56.000Z,27.17
2018-09-02T03:10:40.563Z,26.20
2018-09-02T03:13:20.991Z,27.53
2018-09-02T03:16:01.624Z,27.43
2018-09-02T03:18:42.043Z,28.97
2018-09-02T03:21:22.521Z,26.30
2018-09-02T03:24:03.165Z,27.17
2018-09-02T03:26:43.672Z,28.23
2018-09-02T03:29:24.241Z,30.23
2018-09-02T03:32:06.031Z,29.33
2018-09-02T03:34:46.692Z,29.87
2018-09-02T03:37:27.228Z,33.33
2018-09-02T03:40:09.147Z,34.10
2018-09-02T03:42:49.697Z,35.07
2018-09-02T03:45:31.032Z,33.97
2018-09-02T03:48:11.503Z,32.80
2018-09-02T03:50:52.040Z,32.23
2018-09-02T03:53:32.397Z,32.80
2018-09-02T03:56:13.017Z,33.87
2018-09-02T03:58:53.463Z,33.37
2018-09-02T04:01:35.385Z,33.37
2018-09-02T04:04:15.951Z,33.67
2018-09-02T04:06:56.540Z,34.37
2018-09-02T04:09:39.769Z,37.57
2018-09-02T04:12:20.360Z,38.47
2018-09-02T04:15:00.949Z,38.60
2018-09-02T04:17:41.570Z,39.60
2018-09-02T04:20:26.787Z,41.07
2018-09-02T04:23:09.377Z,39.57
2018-09-02T04:25:49.880Z,40.90
2018-09-02T04:28:30.368Z,40.47
2018-09-02T04:31:11.169Z,37.13
2018-09-02T04:33:51.651Z,37.40
2018-09-02T04:36:32.149Z,36.67
2018-09-02T04:39:12.659Z,37.50
2018-09-02T04:41:53.280Z,35.43
2018-09-02T04:44:35.235Z,32.20
2018-09-02T04:47:16.129Z,32.47
2018-09-02T04:49:56.665Z,30.67
2018-09-02T04:52:39.317Z,32.63
2018-09-02T04:55:19.849Z,29.83
2018-09-02T04:58:00.374Z,28.30
2018-09-02T05:00:41.043Z,31.47
2018-09-02T05:03:21.593Z,30.07
2018-09-02T05:06:02.192Z,34.73
2018-09-02T05:08:42.713Z,32.20
2018-09-02T05:11:23.364Z,33.03
2018-09-02T05:14:05.047Z,32.67
2018-09-02T05:16:45.603Z,32.27
2018-09-02T05:19:26.166Z,33.30
2018-09-02T05:22:09.682Z,31.43
2018-09-02T05:24:50.153Z,31.93
2018-09-02T05:27:31.000Z,31.97
2018-09-02T05:30:11.714Z,32.13
2018-09-02T05:32:52.251Z,29.77
2018-09-02T05:35:32.812Z,29.77
2018-09-02T05:38:13.470Z,30.13
2018-09-02T05:40:54.078Z,30.97
2018-09-02T05:43:36.031Z,28.63
2018-09-02T05:46:16.854Z,27.37
2018-09-02T05:48:57.343Z,27.47
2018-09-02T05:51:40.030Z,27.17
2018-09-02T05:54:20.694Z,28.67
2018-09-02T05:57:01.307Z,27.53
2018-09-02T05:59:41.921Z,29.10
2018-09-02T06:02:22.520Z,28.97
2018-09-02T06:05:03.057Z,30.13
2018-09-02T06:07:43.531Z,28.90
2018-09-02T06:10:24.333Z,28.93
2018-09-02T06:13:06.249Z,29.57
2018-09-02T06:15:46.964Z,30.77
2018-09-02T06:18:27.649Z,30.73
2018-09-02T06:21:09.836Z,30.53
2018-09-02T06:23:50.255Z,30.30
2018-09-02T06:26:30.785Z,29.23
2018-09-02T06:29:11.200Z,27.87
2018-09-02T06:31:51.742Z,28.17
2018-09-02T06:34:32.192Z,28.10
2018-09-02T06:37:12.765Z,26.37
2018-09-02T06:39:53.442Z,27.27
2018-09-02T06:42:34.963Z,34.73
2018-09-02T06:45:15.584Z,28.63
2018-09-02T06:47:56.108Z,31.07
2018-09-02T06:50:39.632Z,25.20
2018-09-02T06:53:20.135Z,27.20
2018-09-02T06:56:01.236Z,26.67
2018-09-02T06:58:41.742Z,27.43
2018-09-02T07:01:22.788Z,27.13
2018-09-02T07:04:03.109Z,25.43
2018-09-02T07:06:43.655Z,25.40
2018-09-02T07:09:24.304Z,25.47
2018-09-02T07:12:05.925Z,24.60
2018-09-02T07:14:46.572Z,24.70
2018-09-02T07:17:27.215Z,25.70
2018-09-02T07:20:11.579Z,25.93
2018-09-02T07:22:52.078Z,24.83
2018-09-02T07:25:32.907Z,26.73
2018-09-02T07:28:13.440Z,26.03
2018-09-02T07:30:55.049Z,26.17
2018-09-02T07:33:38.616Z,26.40
2018-09-02T07:36:20.119Z,25.97
2018-09-02T07:39:00.807Z,27.63
2018-09-02T07:41:41.393Z,26.73
2018-09-02T07:44:21.972Z,25.43
2018-09-02T07:47:02.623Z,26.00
2018-09-02T07:49:44.250Z,24.43
2018-09-02T07:52:25.649Z,24.70
2018-09-02T07:55:10.012Z,23.37
2018-09-02T07:57:51.250Z,24.27
2018-09-02T08:00:32.489Z,23.37
2018-09-02T08:03:13.108Z,24.43
2018-09-02T08:05:54.195Z,21.87
2018-09-02T08:08:38.343Z,23.73
2018-09-02T08:11:18.991Z,28.80
2018-09-02T08:13:59.521Z,26.83
2018-09-02T08:16:41.248Z,26.27
2018-09-02T08:19:21.875Z,27.13
2018-09-02T08:22:02.431Z,27.30
2018-09-02T08:24:42.883Z,27.93
2018-09-02T08:27:23.273Z,29.07
2018-09-02T08:30:05.707Z,30.10
2018-09-02T08:32:46.346Z,29.93
2018-09-02T08:35:26.805Z,26.87
2018-09-02T08:38:09.463Z,26.97
2018-09-02T08:40:50.140Z,27.63
2018-09-02T08:43:30.560Z,26.50
2018-09-02T08:46:14.173Z,24.47
2018-09-02T08:48:54.644Z,23.13
2018-09-02T08:51:36.345Z,24.03
2018-09-02T08:54:16.881Z,24.37
2018-09-02T08:56:57.716Z,26.40
2018-09-02T08:59:40.129Z,27.93
2018-09-02T09:02:20.960Z,24.43
2018-09-02T09:05:01.998Z,22.47
2018-09-02T09:07:42.993Z,17.63
2018-09-02T09:10:23.525Z,19.57
2018-09-02T09:13:05.793Z,23.73
2018-09-02T09:15:46.716Z,23.87
2018-09-02T09:18:27.213Z,24.17
2018-09-02T09:21:09.921Z,23.97
2018-09-02T09:23:50.443Z,24.83
2018-09-02T09:26:31.139Z,21.53
2018-09-02T09:29:11.949Z,25.47
2018-09-02T09:31:52.728Z,25.60
2018-09-02T09:34:33.875Z,24.10
2018-09-02T09:37:14.809Z,24.40
2018-09-02T09:39:55.912Z,24.43
2018-09-02T09:42:40.844Z,25.50
2018-09-02T09:45:21.640Z,26.07
2018-09-02T09:48:02.269Z,26.93
2018-09-02T09:50:42.672Z,24.67
2018-09-02T09:53:23.290Z,30.93
2018-09-02T09:56:06.823Z,34.77
2018-09-02T09:58:47.389Z,31.57
2018-09-02T10:01:27.829Z,32.83
2018-09-02T10:04:09.746Z,32.53
2018-09-02T10:06:50.414Z,29.37
2018-09-02T10:09:31.122Z,30.53
2018-09-02T10:12:14.561Z,33.40
2018-09-02T10:14:55.088Z,35.97
2018-09-02T10:17:38.733Z,40.83
2018-09-02T10:20:19.334Z,44.47
2018-09-02T10:23:00.316Z,48.50
2018-09-02T10:25:43.090Z,49.87
2018-09-02T10:28:25.367Z,51.60
2018-09-02T10:31:10.465Z,51.53
2018-09-02T10:33:51.142Z,58.30
2018-09-02T10:36:31.798Z,59.50
2018-09-02T10:39:12.443Z,48.53
2018-09-02T10:41:58.778Z,33.67
2018-09-02T10:44:42.141Z,30.63
2018-09-02T10:47:22.971Z,33.43
2018-09-02T10:50:03.455Z,29.07
2018-09-02T10:52:44.375Z,26.00
2018-09-02T10:55:24.932Z,26.67
2018-09-02T10:58:07.463Z,27.43
2018-09-02T11:00:48.427Z,32.80
2018-09-02T11:03:29.818Z,28.80
2018-09-02T11:06:11.732Z,32.80
2018-09-02T11:08:52.925Z,39.70
2018-09-02T11:11:33.592Z,43.50
2018-09-02T11:14:14.177Z,45.57
2018-09-02T11:16:54.900Z,46.87
2018-09-02T11:19:35.468Z,47.40
2018-09-02T11:22:46.356Z,49.47
2018-09-02T11:25:26.727Z,50.80
2018-09-02T11:28:10.089Z,48.37
2018-09-02T11:30:50.651Z,51.17
2018-09-02T11:33:31.102Z,51.13
2018-09-02T11:36:12.888Z,49.90
2018-09-02T11:38:53.423Z,48.27
2018-09-02T11:41:34.260Z,49.87
2018-09-02T11:44:14.957Z,49.77
2018-09-02T11:46:55.559Z,50.07
2018-09-02T11:49:37.251Z,50.57
2018-09-02T11:52:17.981Z,47.20
2018-09-02T11:54:58.612Z,45.90
2018-09-02T11:57:41.323Z,45.10
2018-09-02T12:00:22.521Z,47.67
2018-09-02T12:03:03.576Z,46.40
2018-09-02T12:05:44.097Z,45.93
2018-09-02T12:08:24.621Z,43.90
2018-09-02T12:11:05.129Z,40.47
2018-09-02T12:13:53.615Z,38.10
2018-09-02T12:16:34.484Z,36.13
2018-09-02T12:19:14.952Z,37.40
2018-09-02T12:21:55.574Z,38.30
2018-09-02T12:24:44.755Z,34.17
2018-09-02T12:27:25.395Z,35.13
2018-09-02T12:30:08.073Z,36.30
2018-09-02T12:32:48.527Z,35.10
2018-09-02T12:35:29.077Z,32.30
2018-09-02T12:38:11.120Z,33.77
2018-09-02T12:40:51.677Z,31.70
2018-09-02T12:43:32.240Z,34.17
2018-09-02T12:46:12.941Z,32.07
2018-09-02T12:48:53.749Z,32.20
2018-09-02T12:51:34.316Z,30.77
2018-09-02T12:54:14.887Z,29.97
2018-09-02T12:56:55.447Z,29.97
2018-09-02T12:59:37.625Z,28.90
2018-09-02T13:02:18.024Z,26.57
2018-09-02T13:04:58.764Z,25.87
2018-09-02T13:07:41.371Z,26.20
2018-09-02T13:10:21.794Z,24.63
2018-09-02T13:13:10.704Z,23.37
2018-09-02T13:15:51.259Z,23.60
2018-09-02T13:18:31.896Z,20.70
2018-09-02T13:21:22.204Z,18.90
2018-09-02T13:24:02.956Z,19.87
2018-09-02T13:26:43.853Z,18.17
2018-09-02T13:29:24.444Z,18.63
2018-09-02T13:32:05.192Z,18.40
2018-09-02T13:34:45.760Z,21.83
2018-09-02T13:37:26.320Z,18.47
2018-09-02T13:40:07.806Z,17.93
2018-09-02T13:43:01.662Z,18.07
2018-09-02T13:45:43.930Z,17.77
2018-09-02T13:48:24.559Z,18.83
2018-09-02T13:51:05.077Z,22.87
2018-09-02T13:53:45.504Z,11.23
2018-09-02T13:56:25.876Z,14.10
2018-09-02T13:59:06.457Z,8.30
2018-09-02T14:01:46.972Z,11.03
2018-09-02T14:04:27.603Z,13.10
2018-09-02T14:07:11.304Z,7.70
2018-09-02T14:09:51.847Z,9.80
2018-09-02T14:12:32.376Z,10.53
2018-09-02T14:15:13.995Z,10.23
2018-09-02T14:17:54.664Z,10.77
2018-09-02T14:20:35.147Z,10.97
2018-09-02T14:23:15.621Z,10.53
2018-09-02T14:25:56.202Z,11.23
2018-09-02T14:28:37.959Z,11.63
2018-09-02T14:31:18.512Z,10.57
2018-09-02T14:33:59.138Z,8.63
2018-09-02T14:36:43.380Z,10.23
2018-09-02T14:39:24.285Z,10.80
2018-09-02T14:42:05.734Z,13.03
2018-09-02T14:44:46.234Z,13.87
2018-09-02T14:47:26.753Z,10.87
2018-09-02T14:50:09.207Z,10.57
2018-09-02T14:52:50.538Z,11.27
2018-09-02T14:55:30.956Z,10.97
2018-09-02T14:58:12.628Z,11.63
2018-09-02T15:00:53.380Z,11.23
2018-09-02T15:03:33.814Z,11.10
2018-09-02T15:06:14.458Z,12.17
2018-09-02T15:08:54.950Z,12.00
2018-09-02T15:11:36.376Z,11.90
2018-09-02T15:14:19.868Z,11.87
2018-09-02T15:17:00.785Z,12.53
2018-09-02T15:19:42.593Z,12.07
2018-09-02T15:22:23.177Z,12.03
2018-09-02T15:25:03.549Z,11.77
2018-09-02T15:27:45.008Z,11.93
2018-09-02T15:30:25.581Z,10.87
2018-09-02T15:33:06.139Z,12.43
2018-09-02T15:35:46.780Z,11.00
2018-09-02T15:38:27.493Z,10.53
2018-09-02T15:41:11.313Z,11.77
2018-09-02T15:43:52.501Z,13.23
2018-09-02T15:46:33.236Z,10.70
2018-09-02T15:49:14.751Z,9.33
2018-09-02T15:51:55.423Z,14.20
2018-09-02T15:54:35.786Z,13.20
2018-09-02T15:57:16.389Z,11.03
2018-09-02T15:59:58.099Z,11.60
2018-09-02T16:02:41.258Z,11.37
2018-09-02T16:05:22.802Z,11.07
2018-09-02T16:08:03.480Z,9.90
2018-09-02T16:10:44.144Z,10.73
2018-09-02T16:13:24.594Z,13.57
2018-09-02T16:16:05.407Z,14.53
2018-09-02T16:18:46.004Z,11.40
2018-09-02T16:21:26.724Z,13.47
2018-09-02T16:24:07.914Z,12.73
2018-09-02T16:26:48.913Z,15.57
2018-09-02T16:29:30.698Z,14.23
2018-09-02T16:32:12.935Z,14.17
2018-09-02T16:34:54.032Z,12.77
2018-09-02T16:37:34.492Z,12.90
2018-09-02T16:40:16.089Z,11.00
2018-09-02T16:42:57.612Z,11.60
2018-09-02T16:45:41.254Z,10.27
2018-09-02T16:48:21.952Z,10.47
2018-09-02T16:51:02.489Z,10.23
2018-09-02T16:53:44.228Z,9.60
2018-09-02T16:56:24.666Z,9.70
2018-09-02T16:59:05.135Z,10.17
2018-09-02T17:01:45.547Z,10.07
2018-09-02T17:04:27.893Z,11.10
2018-09-02T17:07:11.126Z,10.97
2018-09-02T17:09:51.746Z,11.07
2018-09-02T17:12:32.339Z,11.53
2018-09-02T17:15:15.064Z,11.57
2018-09-02T17:17:55.629Z,10.93
2018-09-02T17:20:38.823Z,11.60
2018-09-02T17:23:19.362Z,12.60
2018-09-02T17:26:03.089Z,12.13
2018-09-02T17:28:46.089Z,13.07
2018-09-02T17:31:30.493Z,11.27
2018-09-02T17:34:13.202Z,12.37
2018-09-02T17:36:53.637Z,11.50
2018-09-02T17:39:35.194Z,13.77
2018-09-02T17:42:15.714Z,12.30
2018-09-02T17:44:56.236Z,13.40
2018-09-02T17:47:36.876Z,13.30
2018-09-02T17:50:20.052Z,13.40
2018-09-02T17:53:00.575Z,15.20
2018-09-02T17:55:43.650Z,14.03
2018-09-02T17:58:24.364Z,13.60
2018-09-02T18:01:05.436Z,14.87
2018-09-02T18:03:45.965Z,14.27
2018-09-02T18:06:26.588Z,14.97
2018-09-02T18:09:12.169Z,16.30
2018-09-02T18:11:54.998Z,15.97
2018-09-02T18:14:35.711Z,15.73
2018-09-02T18:17:16.511Z,15.30
2018-09-02T18:19:57.461Z,14.43
2018-09-02T18:22:39.853Z,15.47
2018-09-02T18:28:36.224Z,16.00
2018-09-02T18:31:17.338Z,15.30
2018-09-02T18:33:59.526Z,15.30
2018-09-02T18:36:42.421Z,16.97
2018-09-02T18:39:23.098Z,14.87
2018-09-02T18:42:03.645Z,16.13
2018-09-02T18:44:46.516Z,14.73
2018-09-02T18:47:27.198Z,15.70
2018-09-02T18:50:07.891Z,15.13
2018-09-02T18:52:51.290Z,15.73
2018-09-02T18:55:31.913Z,15.83
2018-09-02T18:58:16.237Z,15.73
2018-09-02T19:00:56.873Z,14.93
2018-09-02T19:03:37.416Z,15.70
2018-09-02T19:06:18.768Z,15.90
2018-09-02T19:08:59.364Z,14.33
2018-09-02T19:11:40.072Z,15.23
2018-09-02T19:14:22.574Z,14.73
2018-09-02T19:17:03.496Z,14.93
2018-09-02T19:19:46.947Z,15.13
2018-09-02T19:22:27.423Z,15.57
2018-09-02T19:25:08.127Z,14.03
2018-09-02T19:27:49.206Z,14.60
2018-09-02T19:30:29.725Z,14.87
2018-09-02T19:33:10.339Z,14.07
2018-09-02T19:35:52.233Z,14.30
2018-09-02T19:38:32.828Z,13.93
2018-09-02T19:41:15.906Z,15.10
2018-09-02T19:43:56.477Z,14.87
2018-09-02T19:46:37.149Z,16.10
2018-09-02T19:49:19.194Z,18.83
2018-09-02T19:51:59.891Z,18.67
2018-09-02T19:54:40.800Z,18.33
2018-09-02T19:57:21.215Z,17.80
2018-09-02T20:00:01.801Z,16.57
2018-09-02T20:02:42.472Z,17.03
2018-09-02T20:05:23.142Z,18.47
2018-09-02T20:08:03.734Z,16.83
2018-09-02T20:10:45.876Z,16.90
2018-09-02T20:13:26.454Z,13.93
2018-09-02T20:16:07.024Z,14.03
2018-09-02T20:18:49.625Z,15.53
2018-09-02T20:21:30.100Z,15.27
2018-09-02T20:24:10.745Z,15.00
2018-09-02T20:26:51.259Z,13.93
2018-09-02T20:29:31.764Z,15.03
2018-09-02T20:32:12.243Z,14.60
2018-09-02T20:34:52.830Z,13.03
2018-09-02T20:37:33.594Z,13.57
2018-09-02T20:40:15.524Z,13.80
2018-09-02T20:42:57.140Z,14.53
2018-09-02T20:45:37.616Z,14.47
2018-09-02T20:48:19.140Z,14.77
2018-09-02T20:50:59.705Z,14.77
2018-09-02T20:53:40.090Z,15.90
2018-09-02T20:56:20.379Z,16.30
2018-09-02T20:59:00.780Z,16.03
2018-09-02T21:01:41.206Z,15.97
2018-09-02T21:04:21.804Z,15.57
2018-09-02T21:07:02.483Z,14.40
2018-09-02T21:09:43.033Z,17.07
2018-09-02T21:12:23.516Z,15.23
2018-09-02T21:15:03.960Z,16.00
2018-09-02T21:17:48.837Z,16.77
2018-09-02T21:20:30.947Z,16.70
2018-09-02T21:23:11.567Z,15.37
2018-09-02T21:25:52.405Z,14.93
2018-09-02T21:28:33.026Z,15.40
2018-09-02T21:31:14.539Z,15.27
2018-09-02T21:33:55.144Z,14.57
2018-09-02T21:36:35.748Z,14.93
2018-09-02T21:39:18.568Z,14.33
2018-09-02T21:41:59.238Z,13.63
2018-09-02T21:44:39.732Z,14.77
2018-09-02T21:47:20.399Z,13.40
2018-09-02T21:50:00.969Z,14.97
2018-09-02T21:52:41.537Z,14.93
2018-09-02T21:55:21.868Z,15.97
2018-09-02T21:58:02.352Z,14.53
2018-09-02T22:00:42.726Z,14.83
2018-09-02T22:03:23.195Z,16.07
2018-09-02T22:06:03.947Z,14.23
2018-09-02T22:08:45.869Z,16.27
2018-09-02T22:11:26.753Z,13.40
2018-09-02T22:14:07.303Z,14.77
2018-09-02T22:16:49.577Z,14.57
2018-09-02T22:19:30.116Z,15.13
2018-09-02T22:22:10.452Z,14.47
2018-09-02T22:24:51.052Z,13.93
2018-09-02T22:27:31.475Z,13.93
2018-09-02T22:30:12.039Z,13.50
2018-09-02T22:32:52.571Z,13.70
2018-09-02T22:35:33.047Z,15.03
2018-09-02T22:38:14.520Z,14.13
2018-09-02T22:40:55.088Z,13.87
2018-09-02T22:43:35.616Z,13.60
2018-09-02T22:46:18.768Z,14.17
2018-09-02T22:48:59.159Z,13.03
2018-09-02T22:51:39.773Z,12.47
2018-09-02T22:54:20.703Z,13.47
2018-09-02T22:57:01.040Z,14.17
2018-09-02T22:59:41.665Z,13.07
2018-09-02T23:02:22.299Z,14.10
2018-09-02T23:05:02.924Z,13.37
2018-09-02T23:07:44.616Z,13.00
2018-09-02T23:10:25.116Z,12.93
2018-09-02T23:13:06.245Z,13.30
2018-09-02T23:15:48.512Z,12.53
2018-09-02T23:18:29.068Z,13.20
2018-09-02T23:21:09.659Z,13.50
2018-09-02T23:23:51.673Z,12.80
2018-09-02T23:26:32.171Z,12.63
2018-09-02T23:29:12.565Z,13.23
2018-09-02T23:31:53.063Z,13.47
2018-09-02T23:34:33.451Z,12.30
2018-09-02T23:37:14.544Z,13.73
2018-09-02T23:39:55.057Z,11.93
2018-09-02T23:42:35.653Z,12.93
2018-09-02T23:45:18.954Z,12.27
2018-09-02T23:47:59.443Z,12.33
2018-09-02T23:50:39.888Z,11.73
2018-09-02T23:53:20.471Z,11.60
2018-09-02T23:56:00.877Z,11.80
2018-09-02T23:58:42.091Z,12.57
